Kudymkar, Russia
Current Conditions -  °F | °C
As of 9:00 AM on Sunday 26 Oct 2014 (Local Time) from USPP Reporting Station
Scattered Clouds Scattered Clouds  
Wind Chill: -2°   Ceiling: Unl
Heat Index:   Visibility: 6mi
Dew Point:   Wind: 7mph
Humidity: 85%   Direction: 290°WNW
Pressure: 30.33"   Gusts: NA
Location:  59.01°N, 54.66°E
Report Text: USPP 260500Z 29003MPS 9999 FEW006 SCT200 M13/M15 Q1027 03810255TEMPO SCT002 RMK QBB180 QFE759/1013
Loading
Personal Weather Stations






























Interactive Weather Map
Tropical Storm Tracking
New forecast layout! Learn more

10-Day Weather Forecast

Advertisements
Track Severe Weather on mobile